sensor_id;sensor_type;location;lat;lon;timestamp;pressure;altitude;pressure_sealevel;temperature;humidity
40075;BME280;26529;51.530;11.754;2023-01-23T00:01:19;101677.84;;;19.20;43.79
40075;BME280;26529;51.530;11.754;2023-01-23T00:03:46;101681.44;;;19.19;43.87
40075;BME280;26529;51.530;11.754;2023-01-23T00:06:14;101674.41;;;19.18;43.83
40075;BME280;26529;51.530;11.754;2023-01-23T00:08:41;101681.59;;;19.16;43.88
40075;BME280;26529;51.530;11.754;2023-01-23T00:11:09;101679.88;;;19.15;43.82
40075;BME280;26529;51.530;11.754;2023-01-23T00:13:35;101681.69;;;19.13;44.02
40075;BME280;26529;51.530;11.754;2023-01-23T00:16:13;101682.56;;;19.14;44.03
40075;BME280;26529;51.530;11.754;2023-01-23T00:18:38;101683.56;;;19.11;44.00
40075;BME280;26529;51.530;11.754;2023-01-23T00:21:06;101681.84;;;19.10;43.89
40075;BME280;26529;51.530;11.754;2023-01-23T00:23:33;101680.13;;;19.09;44.01
40075;BME280;26529;51.530;11.754;2023-01-23T00:26:06;101683.69;;;19.08;44.12
40075;BME280;26529;51.530;11.754;2023-01-23T00:28:32;101679.28;;;19.07;44.19
40075;BME280;26529;51.530;11.754;2023-01-23T00:31:08;101682.88;;;19.06;44.17
40075;BME280;26529;51.530;11.754;2023-01-23T00:33:34;101681.16;;;19.05;44.04
40075;BME280;26529;51.530;11.754;2023-01-23T00:36:00;101677.69;;;19.03;44.13
40075;BME280;26529;51.530;11.754;2023-01-23T00:38:25;101678.59;;;19.02;44.11
40075;BME280;26529;51.530;11.754;2023-01-23T00:40:51;101679.50;;;19.01;44.09
40075;BME280;26529;51.530;11.754;2023-01-23T00:43:19;101686.63;;;19.00;44.25
40075;BME280;26529;51.530;11.754;2023-01-23T00:45:47;101685.75;;;18.99;44.17
40075;BME280;26529;51.530;11.754;2023-01-23T00:48:13;101681.38;;;18.98;44.27
40075;BME280;26529;51.530;11.754;2023-01-23T00:50:38;101683.22;;;18.96;44.28
40075;BME280;26529;51.530;11.754;2023-01-23T00:53:04;101679.78;;;18.94;44.28
40075;BME280;26529;51.530;11.754;2023-01-23T00:55:29;101676.19;;;18.95;44.34
40075;BME280;26529;51.530;11.754;2023-01-23T00:57:55;101693.06;;;18.94;44.28
40075;BME280;26529;51.530;11.754;2023-01-23T01:00:20;101691.31;;;18.93;44.23
40075;BME280;26529;51.530;11.754;2023-01-23T01:02:46;101688.75;;;18.92;44.34
40075;BME280;26529;51.530;11.754;2023-01-23T01:05:12;101682.53;;;18.91;44.31
40075;BME280;26529;51.530;11.754;2023-01-23T01:07:38;101699.44;;;18.90;44.35
40075;BME280;26529;51.530;11.754;2023-01-23T01:10:04;101698.50;;;18.91;44.42
40075;BME280;26529;51.530;11.754;2023-01-23T01:12:29;101696.75;;;18.90;44.29
40075;BME280;26529;51.530;11.754;2023-01-23T01:14:55;101700.34;;;18.89;44.36
40075;BME280;26529;51.530;11.754;2023-01-23T01:17:20;101712.81;;;18.87;44.46
40075;BME280;26529;51.530;11.754;2023-01-23T01:19:47;101711.09;;;18.86;44.52
40075;BME280;26529;51.530;11.754;2023-01-23T01:22:12;101710.25;;;18.85;44.55
40075;BME280;26529;51.530;11.754;2023-01-23T01:24:40;101716.41;;;18.86;44.45
40075;BME280;26529;51.530;11.754;2023-01-23T01:27:06;101707.63;;;18.84;44.45
40075;BME280;26529;51.530;11.754;2023-01-23T01:29:32;101718.28;;;18.84;44.76
40075;BME280;26529;51.530;11.754;2023-01-23T01:31:58;101712.16;;;18.82;44.48
40075;BME280;26529;51.530;11.754;2023-01-23T01:34:23;101725.44;;;18.82;44.60
40075;BME280;26529;51.530;11.754;2023-01-23T01:36:49;101724.63;;;18.80;44.43
40075;BME280;26529;51.530;11.754;2023-01-23T01:39:16;101728.22;;;18.79;44.52
40075;BME280;26529;51.530;11.754;2023-01-23T01:41:42;101729.03;;;18.81;44.61
40075;BME280;26529;51.530;11.754;2023-01-23T01:44:14;101730.00;;;18.78;44.56
40075;BME280;26529;51.530;11.754;2023-01-23T01:46:41;101737.91;;;18.80;44.77
40075;BME280;26529;51.530;11.754;2023-01-23T01:49:11;101743.22;;;18.80;44.47
40075;BME280;26529;51.530;11.754;2023-01-23T01:51:43;101744.19;;;18.77;44.66
40075;BME280;26529;51.530;11.754;2023-01-23T01:54:24;101744.19;;;18.77;44.55
40075;BME280;26529;51.530;11.754;2023-01-23T01:57:01;101748.72;;;18.75;44.65
40075;BME280;26529;51.530;11.754;2023-01-23T01:59:32;101758.41;;;18.76;44.77
40075;BME280;26529;51.530;11.754;2023-01-23T02:02:05;101760.28;;;18.74;44.71
40075;BME280;26529;51.530;11.754;2023-01-23T02:04:35;101760.41;;;18.71;44.59
40075;BME280;26529;51.530;11.754;2023-01-23T02:07:08;101768.28;;;18.73;44.67
40075;BME280;26529;51.530;11.754;2023-01-23T02:09:36;101762.97;;;18.73;44.55
40075;BME280;26529;51.530;11.754;2023-01-23T02:12:02;101764.78;;;18.72;44.68
40075;BME280;26529;51.530;11.754;2023-01-23T02:14:29;101764.03;;;18.68;44.74
40075;BME280;26529;51.530;11.754;2023-01-23T02:16:54;101770.16;;;18.70;44.63
40075;BME280;26529;51.530;11.754;2023-01-23T02:19:44;101763.13;;;18.69;44.77
40075;BME280;26529;51.530;11.754;2023-01-23T02:22:36;101760.50;;;18.68;44.95
40075;BME280;26529;51.530;11.754;2023-01-23T02:27:56;101768.53;;;18.66;44.77
40075;BME280;26529;51.530;11.754;2023-01-23T02:30:23;101767.69;;;18.66;44.72
40075;BME280;26529;51.530;11.754;2023-01-23T02:32:51;101762.38;;;18.66;44.65
40075;BME280;26529;51.530;11.754;2023-01-23T02:35:28;101763.22;;;18.66;44.81
40075;BME280;26529;51.530;11.754;2023-01-23T02:38:02;101755.31;;;18.65;44.80
40075;BME280;26529;51.530;11.754;2023-01-23T02:40:34;101758.88;;;18.64;44.94
40075;BME280;26529;51.530;11.754;2023-01-23T02:43:04;101766.00;;;18.63;44.72
40075;BME280;26529;51.530;11.754;2023-01-23T02:45:31;101762.47;;;18.63;44.79
40075;BME280;26529;51.530;11.754;2023-01-23T02:47:57;101764.28;;;18.62;44.97
40075;BME280;26529;51.530;11.754;2023-01-23T02:50:23;101767.84;;;18.61;44.94
40075;BME280;26529;51.530;11.754;2023-01-23T02:52:48;101774.06;;;18.60;44.95
40075;BME280;26529;51.530;11.754;2023-01-23T02:55:16;101774.06;;;18.60;44.85
40075;BME280;26529;51.530;11.754;2023-01-23T02:57:42;101768.75;;;18.60;44.87
40075;BME280;26529;51.530;11.754;2023-01-23T03:00:10;101766.19;;;18.58;45.01
40075;BME280;26529;51.530;11.754;2023-01-23T03:02:49;101775.00;;;18.59;44.99
40075;BME280;26529;51.530;11.754;2023-01-23T03:05:16;101774.16;;;18.58;44.97
40075;BME280;26529;51.530;11.754;2023-01-23T03:07:42;101773.22;;;18.60;44.95
40075;BME280;26529;51.530;11.754;2023-01-23T03:10:10;101779.50;;;18.57;45.01
40075;BME280;26529;51.530;11.754;2023-01-23T03:12:36;101773.31;;;18.56;44.94
40075;BME280;26529;51.530;11.754;2023-01-23T03:15:08;101774.19;;;18.57;45.09
40075;BME280;26529;51.530;11.754;2023-01-23T03:17:34;101774.19;;;18.57;44.94
40075;BME280;26529;51.530;11.754;2023-01-23T03:20:01;101779.59;;;18.54;45.02
40075;BME280;26529;51.530;11.754;2023-01-23T03:22:27;101779.56;;;18.55;44.94
40075;BME280;26529;51.530;11.754;2023-01-23T03:24:53;101784.91;;;18.54;45.03
40075;BME280;26529;51.530;11.754;2023-01-23T03:27:20;101781.47;;;18.52;45.16
40075;BME280;26529;51.530;11.754;2023-01-23T03:29:50;101784.06;;;18.53;45.05
40075;BME280;26529;51.530;11.754;2023-01-23T03:32:34;101785.84;;;18.53;45.03
40075;BME280;26529;51.530;11.754;2023-01-23T03:35:02;101783.19;;;18.53;45.11
40075;BME280;26529;51.530;11.754;2023-01-23T03:37:28;101788.63;;;18.50;45.04
40075;BME280;26529;51.530;11.754;2023-01-23T03:39:55;101790.34;;;18.51;45.19
40075;BME280;26529;51.530;11.754;2023-01-23T03:42:40;101792.09;;;18.52;45.01
40075;BME280;26529;51.530;11.754;2023-01-23T03:45:08;101793.00;;;18.51;45.04
40075;BME280;26529;51.530;11.754;2023-01-23T03:47:35;101792.09;;;18.52;45.12
40075;BME280;26529;51.530;11.754;2023-01-23T03:50:00;101797.41;;;18.52;45.05
40075;BME280;26529;51.530;11.754;2023-01-23T03:52:29;101793.00;;;18.51;45.21
40075;BME280;26529;51.530;11.754;2023-01-23T03:54:55;101795.66;;;18.51;45.06
40075;BME280;26529;51.530;11.754;2023-01-23T03:57:21;101796.59;;;18.50;45.04
40075;BME280;26529;51.530;11.754;2023-01-23T03:59:46;101796.66;;;18.48;45.26
40075;BME280;26529;51.530;11.754;2023-01-23T04:02:14;101802.84;;;18.49;45.33
40075;BME280;26529;51.530;11.754;2023-01-23T04:04:39;101808.16;;;18.49;45.48
40075;BME280;26529;51.530;11.754;2023-01-23T04:07:07;101805.50;;;18.49;45.07
40075;BME280;26529;51.530;11.754;2023-01-23T04:09:34;101800.22;;;18.47;45.39
40075;BME280;26529;51.530;11.754;2023-01-23T04:12:00;101809.13;;;18.46;45.23
40075;BME280;26529;51.530;11.754;2023-01-23T04:14:27;101797.63;;;18.46;45.14
40075;BME280;26529;51.530;11.754;2023-01-23T04:16:54;101803.81;;;18.46;45.40
40075;BME280;26529;51.530;11.754;2023-01-23T04:19:20;101801.19;;;18.44;45.38
40075;BME280;26529;51.530;11.754;2023-01-23T04:21:47;101808.25;;;18.46;45.36
40075;BME280;26529;51.530;11.754;2023-01-23T04:24:14;101799.47;;;18.43;45.34
40075;BME280;26529;51.530;11.754;2023-01-23T04:26:40;101799.47;;;18.43;45.27
40075;BME280;26529;51.530;11.754;2023-01-23T04:29:06;101802.09;;;18.45;45.23
40075;BME280;26529;51.530;11.754;2023-01-23T04:31:34;101801.19;;;18.44;45.40
40075;BME280;26529;51.530;11.754;2023-01-23T04:34:00;101807.50;;;18.42;45.69
40075;BME280;26529;51.530;11.754;2023-01-23T04:36:26;101809.31;;;18.41;45.39
40075;BME280;26529;51.530;11.754;2023-01-23T04:38:52;101811.13;;;18.39;45.76
40075;BME280;26529;51.530;11.754;2023-01-23T04:41:24;101808.47;;;18.39;45.20
40075;BME280;26529;51.530;11.754;2023-01-23T04:43:57;101804.06;;;18.38;45.48
40075;BME280;26529;51.530;11.754;2023-01-23T04:46:49;101808.47;;;18.39;45.49
40075;BME280;26529;51.530;11.754;2023-01-23T04:49:19;101808.47;;;18.39;45.44
40075;BME280;26529;51.530;11.754;2023-01-23T04:51:46;101813.78;;;18.39;45.23
40075;BME280;26529;51.530;11.754;2023-01-23T04:54:13;101825.31;;;18.38;45.54
40075;BME280;26529;51.530;11.754;2023-01-23T04:56:39;101833.34;;;18.37;45.53
40075;BME280;26529;51.530;11.754;2023-01-23T04:59:07;101827.19;;;18.36;45.47
40075;BME280;26529;51.530;11.754;2023-01-23T05:01:35;101837.81;;;18.36;45.42
40075;BME280;26529;51.530;11.754;2023-01-23T05:04:02;101838.72;;;18.35;45.34
40075;BME280;26529;51.530;11.754;2023-01-23T05:06:28;101839.56;;;18.36;45.35
40075;BME280;26529;51.530;11.754;2023-01-23T05:08:55;101846.75;;;18.34;45.51
40075;BME280;26529;51.530;11.754;2023-01-23T05:11:47;101845.84;;;18.33;45.50
40075;BME280;26529;51.530;11.754;2023-01-23T05:14:12;101852.06;;;18.34;45.53
40075;BME280;26529;51.530;11.754;2023-01-23T05:16:40;101846.78;;;18.32;45.55
40075;BME280;26529;51.530;11.754;2023-01-23T05:19:28;101840.53;;;18.33;45.50
40075;BME280;26529;51.530;11.754;2023-01-23T05:21:54;101843.19;;;18.33;45.44
40075;BME280;26529;51.530;11.754;2023-01-23T05:24:20;101845.97;;;18.30;45.53
40075;BME280;26529;51.530;11.754;2023-01-23T05:26:47;101854.75;;;18.32;45.67
40075;BME280;26529;51.530;11.754;2023-01-23T05:29:13;101849.44;;;18.32;45.55
40075;BME280;26529;51.530;11.754;2023-01-23T05:31:48;101854.75;;;18.32;45.49
40075;BME280;26529;51.530;11.754;2023-01-23T05:34:34;101861.00;;;18.31;45.51
40075;BME280;26529;51.530;11.754;2023-01-23T05:37:02;101861.91;;;18.30;45.69
40075;BME280;26529;51.530;11.754;2023-01-23T05:39:31;101857.47;;;18.30;45.54
40075;BME280;26529;51.530;11.754;2023-01-23T05:41:58;101857.47;;;18.30;45.56
40075;BME280;26529;51.530;11.754;2023-01-23T05:44:46;101858.44;;;18.28;45.78
40075;BME280;26529;51.530;11.754;2023-01-23T05:47:22;101865.50;;;18.29;45.59
40075;BME280;26529;51.530;11.754;2023-01-23T05:49:49;101867.28;;;18.28;45.64
40075;BME280;26529;51.530;11.754;2023-01-23T05:52:14;101872.63;;;18.27;45.70
40075;BME280;26529;51.530;11.754;2023-01-23T05:54:42;101862.00;;;18.27;45.66
40075;BME280;26529;51.530;11.754;2023-01-23T05:57:08;101867.94;;;18.35;45.68
40075;BME280;26529;51.530;11.754;2023-01-23T06:00:06;101877.47;;;18.41;45.57
40075;BME280;26529;51.530;11.754;2023-01-23T06:02:41;101868.53;;;18.43;45.67
40075;BME280;26529;51.530;11.754;2023-01-23T06:05:41;101880.78;;;18.48;45.72
40075;BME280;26529;51.530;11.754;2023-01-23T06:08:14;101883.38;;;18.49;45.80
40075;BME280;26529;51.530;11.754;2023-01-23T06:10:41;101878.91;;;18.51;45.80
40075;BME280;26529;51.530;11.754;2023-01-23T06:13:07;101881.56;;;18.51;45.85
40075;BME280;26529;51.530;11.754;2023-01-23T06:15:35;101883.28;;;18.52;45.77
40075;BME280;26529;51.530;11.754;2023-01-23T06:18:04;101884.13;;;18.53;45.92
40075;BME280;26529;51.530;11.754;2023-01-23T06:20:30;101887.63;;;18.55;46.11
40075;BME280;26529;51.530;11.754;2023-01-23T06:22:56;101892.94;;;18.55;46.02
40075;BME280;26529;51.530;11.754;2023-01-23T06:25:22;101886.75;;;18.54;46.03
40075;BME280;26529;51.530;11.754;2023-01-23T06:27:50;101893.78;;;18.55;46.10
40075;BME280;26529;51.530;11.754;2023-01-23T06:30:15;101893.78;;;18.55;46.07
40075;BME280;26529;51.530;11.754;2023-01-23T06:32:44;101904.41;;;18.55;46.24
40075;BME280;26529;51.530;11.754;2023-01-23T06:35:11;101919.50;;;18.55;46.28
40075;BME280;26529;51.530;11.754;2023-01-23T06:37:40;101912.41;;;18.54;46.21
40075;BME280;26529;51.530;11.754;2023-01-23T06:40:07;101914.19;;;18.55;46.07
40075;BME280;26529;51.530;11.754;2023-01-23T06:42:39;101914.22;;;18.53;46.10
40075;BME280;26529;51.530;11.754;2023-01-23T06:45:06;101920.38;;;18.54;46.16
40075;BME280;26529;51.530;11.754;2023-01-23T06:47:33;101917.72;;;18.54;46.23
40075;BME280;26529;51.530;11.754;2023-01-23T06:49:59;101926.63;;;18.53;46.41
40075;BME280;26529;51.530;11.754;2023-01-23T06:52:29;101933.63;;;18.55;46.00
40075;BME280;26529;51.530;11.754;2023-01-23T06:54:55;101937.22;;;18.54;46.16
40075;BME280;26529;51.530;11.754;2023-01-23T06:57:21;101938.09;;;18.55;46.04
40075;BME280;26529;51.530;11.754;2023-01-23T06:59:48;101936.31;;;18.54;46.09
40075;BME280;26529;51.530;11.754;2023-01-23T07:02:16;101935.47;;;18.53;46.32
40075;BME280;26529;51.530;11.754;2023-01-23T07:04:48;101942.56;;;18.53;46.30
40075;BME280;26529;51.530;11.754;2023-01-23T07:07:13;101931.94;;;18.53;46.29
40075;BME280;26529;51.530;11.754;2023-01-23T07:09:40;101944.28;;;18.54;46.16
40075;BME280;26529;51.530;11.754;2023-01-23T07:12:16;101945.22;;;18.53;46.19
40075;BME280;26529;51.530;11.754;2023-01-23T07:14:42;101947.03;;;18.52;46.19
40075;BME280;26529;51.530;11.754;2023-01-23T07:17:10;101952.34;;;18.52;46.11
40075;BME280;26529;51.530;11.754;2023-01-23T07:19:36;101962.09;;;18.52;46.22
40075;BME280;26529;51.530;11.754;2023-01-23T07:22:05;101975.31;;;18.53;46.12
40075;BME280;26529;51.530;11.754;2023-01-23T07:24:31;101969.13;;;18.53;46.23
40075;BME280;26529;51.530;11.754;2023-01-23T07:26:57;101978.34;;;18.42;45.95
40075;BME280;26529;51.530;11.754;2023-01-23T07:29:23;101978.88;;;17.06;43.78
40075;BME280;26529;51.530;11.754;2023-01-23T07:31:48;101979.34;;;16.51;43.40
40075;BME280;26529;51.530;11.754;2023-01-23T07:34:14;101987.56;;;16.04;43.51
40075;BME280;26529;51.530;11.754;2023-01-23T07:36:39;101983.72;;;15.77;42.79
40075;BME280;26529;51.530;11.754;2023-01-23T07:39:05;101989.34;;;15.61;42.57
40075;BME280;26529;51.530;11.754;2023-01-23T07:41:30;101991.19;;;15.56;42.44
40075;BME280;26529;51.530;11.754;2023-01-23T07:44:00;101998.69;;;15.33;42.24
40075;BME280;26529;51.530;11.754;2023-01-23T07:46:26;102005.06;;;15.23;42.46
40075;BME280;26529;51.530;11.754;2023-01-23T07:48:51;101998.16;;;15.17;42.00
40075;BME280;26529;51.530;11.754;2023-01-23T07:51:17;102005.50;;;15.00;42.26
40075;BME280;26529;51.530;11.754;2023-01-23T07:53:42;101996.75;;;14.96;41.85
40075;BME280;26529;51.530;11.754;2023-01-23T07:56:08;101999.22;;;15.53;41.75
40075;BME280;26529;51.530;11.754;2023-01-23T07:58:33;102000.38;;;16.21;41.00
40075;BME280;26529;51.530;11.754;2023-01-23T08:01:06;101999.31;;;16.65;40.94
40075;BME280;26529;51.530;11.754;2023-01-23T08:03:31;101998.78;;;16.87;41.64
40075;BME280;26529;51.530;11.754;2023-01-23T08:05:57;102009.09;;;16.98;42.73
40075;BME280;26529;51.530;11.754;2023-01-23T08:08:23;102006.31;;;17.04;42.66
40075;BME280;26529;51.530;11.754;2023-01-23T08:10:49;102009.69;;;17.09;42.64
40075;BME280;26529;51.530;11.754;2023-01-23T08:13:14;102001.63;;;17.14;43.01
40075;BME280;26529;51.530;11.754;2023-01-23T08:15:40;102009.50;;;17.17;42.80
40075;BME280;26529;51.530;11.754;2023-01-23T08:18:06;102012.88;;;17.22;42.94
40075;BME280;26529;51.530;11.754;2023-01-23T08:20:31;102009.34;;;17.21;43.04
40075;BME280;26529;51.530;11.754;2023-01-23T08:22:57;102005.75;;;17.24;43.16
40075;BME280;26529;51.530;11.754;2023-01-23T08:25:23;102010.06;;;17.28;43.04
40075;BME280;26529;51.530;11.754;2023-01-23T08:27:48;102003.84;;;17.29;43.07
40075;BME280;26529;51.530;11.754;2023-01-23T08:30:14;102004.66;;;17.31;43.12
40075;BME280;26529;51.530;11.754;2023-01-23T08:32:40;102017.88;;;17.33;43.25
40075;BME280;26529;51.530;11.754;2023-01-23T08:35:06;102017.88;;;17.33;43.14
40075;BME280;26529;51.530;11.754;2023-01-23T08:37:31;102023.19;;;17.33;43.46
40075;BME280;26529;51.530;11.754;2023-01-23T08:39:58;102031.03;;;17.36;43.35
40075;BME280;26529;51.530;11.754;2023-01-23T08:42:24;102029.28;;;17.36;43.44
40075;BME280;26529;51.530;11.754;2023-01-23T08:44:49;102028.41;;;17.36;43.49
40075;BME280;26529;51.530;11.754;2023-01-23T08:47:15;102032.75;;;17.39;43.47
40075;BME280;26529;51.530;11.754;2023-01-23T08:49:40;102036.25;;;17.41;43.52
40075;BME280;26529;51.530;11.754;2023-01-23T08:52:06;102033.59;;;17.41;43.48
40075;BME280;26529;51.530;11.754;2023-01-23T08:54:32;102035.28;;;17.43;43.58
40075;BME280;26529;51.530;11.754;2023-01-23T08:56:58;102041.44;;;17.44;43.52
40075;BME280;26529;51.530;11.754;2023-01-23T08:59:24;102040.59;;;17.43;43.71
40075;BME280;26529;51.530;11.754;2023-01-23T09:01:49;102046.75;;;17.44;43.60
40075;BME280;26529;51.530;11.754;2023-01-23T09:04:16;102046.75;;;17.44;43.68
40075;BME280;26529;51.530;11.754;2023-01-23T09:06:41;102047.63;;;17.44;43.55
40075;BME280;26529;51.530;11.754;2023-01-23T09:09:07;102054.66;;;17.45;43.72
40075;BME280;26529;51.530;11.754;2023-01-23T09:11:32;102057.28;;;17.47;43.69
40075;BME280;26529;51.530;11.754;2023-01-23T09:13:58;102057.28;;;17.47;43.71
40075;BME280;26529;51.530;11.754;2023-01-23T09:16:23;102058.13;;;17.47;44.03
40075;BME280;26529;51.530;11.754;2023-01-23T09:18:49;102054.56;;;17.48;43.72
40075;BME280;26529;51.530;11.754;2023-01-23T09:21:15;102060.75;;;17.49;43.74
40075;BME280;26529;51.530;11.754;2023-01-23T09:23:41;102055.44;;;17.49;43.75
40075;BME280;26529;51.530;11.754;2023-01-23T09:26:09;102057.19;;;17.50;43.87
40075;BME280;26529;51.530;11.754;2023-01-23T09:28:36;102053.72;;;17.48;43.90
40075;BME280;26529;51.530;11.754;2023-01-23T09:31:04;102051.84;;;17.52;43.83
40075;BME280;26529;51.530;11.754;2023-01-23T09:33:32;102054.94;;;17.68;43.91
40075;BME280;26529;51.530;11.754;2023-01-23T09:35:57;102054.50;;;17.82;43.83
40075;BME280;26529;51.530;11.754;2023-01-23T09:38:23;102053.47;;;17.87;43.93
40075;BME280;26529;51.530;11.754;2023-01-23T09:40:50;102061.50;;;17.84;44.11
40075;BME280;26529;51.530;11.754;2023-01-23T09:46:06;102058.97;;;17.81;44.48
40075;BME280;26529;51.530;11.754;2023-01-23T09:48:48;102054.59;;;17.80;44.48
40075;BME280;26529;51.530;11.754;2023-01-23T09:51:24;102058.09;;;17.81;44.51
40075;BME280;26529;51.530;11.754;2023-01-23T09:53:55;102062.47;;;17.82;44.63
40075;BME280;26529;51.530;11.754;2023-01-23T09:56:39;102066.00;;;17.82;44.79
40075;BME280;26529;51.530;11.754;2023-01-23T10:01:35;102053.59;;;17.83;44.76
40075;BME280;26529;51.530;11.754;2023-01-23T10:04:02;102053.47;;;17.87;44.61
40075;BME280;26529;51.530;11.754;2023-01-23T10:06:55;102062.06;;;17.96;44.58
40075;BME280;26529;51.530;11.754;2023-01-23T10:17:40;102053.47;;;18.17;44.27
40075;BME280;26529;51.530;11.754;2023-01-23T10:20:37;102050.78;;;18.19;44.66
40075;BME280;26529;51.530;11.754;2023-01-23T10:26:14;102043.56;;;18.24;44.47
40075;BME280;26529;51.530;11.754;2023-01-23T10:28:42;102036.44;;;18.25;44.45
40075;BME280;26529;51.530;11.754;2023-01-23T10:31:15;102040.94;;;18.23;44.49
40075;BME280;26529;51.530;11.754;2023-01-23T10:33:50;102042.78;;;18.21;45.03
40075;BME280;26529;51.530;11.754;2023-01-23T10:36:28;102029.53;;;18.19;44.70
40075;BME280;26529;51.530;11.754;2023-01-23T10:39:01;102032.25;;;18.17;44.73
40075;BME280;26529;51.530;11.754;2023-01-23T10:41:28;102026.97;;;18.16;44.97
40075;BME280;26529;51.530;11.754;2023-01-23T10:43:54;102032.28;;;18.16;45.05
40075;BME280;26529;51.530;11.754;2023-01-23T10:46:32;102026.09;;;18.17;44.96
40075;BME280;26529;51.530;11.754;2023-01-23T10:48:59;102034.09;;;18.15;44.97
40075;BME280;26529;51.530;11.754;2023-01-23T10:51:46;102037.66;;;18.14;45.09
40075;BME280;26529;51.530;11.754;2023-01-23T10:54:19;102027.03;;;18.14;45.05
40075;BME280;26529;51.530;11.754;2023-01-23T10:56:46;102031.44;;;18.15;45.05
40075;BME280;26529;51.530;11.754;2023-01-23T10:59:38;102029.59;;;18.17;44.99
40075;BME280;26529;51.530;11.754;2023-01-23T11:04:38;102033.06;;;18.20;44.98
40075;BME280;26529;51.530;11.754;2023-01-23T11:07:06;102028.66;;;18.19;45.11
40075;BME280;26529;51.530;11.754;2023-01-23T11:09:57;102043.66;;;18.20;45.07
40075;BME280;26529;51.530;11.754;2023-01-23T11:12:33;102041.00;;;18.20;45.18
40075;BME280;26529;51.530;11.754;2023-01-23T11:15:34;102055.22;;;18.19;45.12
40075;BME280;26529;51.530;11.754;2023-01-23T11:18:40;102057.78;;;18.22;45.23
40075;BME280;26529;51.530;11.754;2023-01-23T11:21:19;102058.72;;;18.21;45.23
40075;BME280;26529;51.530;11.754;2023-01-23T11:23:45;102047.22;;;18.20;45.33
40075;BME280;26529;51.530;11.754;2023-01-23T11:26:29;102055.13;;;18.22;45.21
40075;BME280;26529;51.530;11.754;2023-01-23T11:28:55;102042.78;;;18.21;45.44
40075;BME280;26529;51.530;11.754;2023-01-23T11:31:21;102043.63;;;18.21;45.23
40075;BME280;26529;51.530;11.754;2023-01-23T11:34:11;102040.00;;;18.24;45.08
40075;BME280;26529;51.530;11.754;2023-01-23T11:36:44;102035.63;;;18.23;45.63
40075;BME280;26529;51.530;11.754;2023-01-23T11:39:52;102040.06;;;18.22;45.46
40075;BME280;26529;51.530;11.754;2023-01-23T11:42:19;102028.59;;;18.22;45.30
40075;BME280;26529;51.530;11.754;2023-01-23T11:44:45;102033.91;;;18.22;45.58
40075;BME280;26529;51.530;11.754;2023-01-23T11:53:00;102035.63;;;18.23;45.52
40075;BME280;26529;51.530;11.754;2023-01-23T12:01:33;102028.59;;;18.22;45.57
40075;BME280;26529;51.530;11.754;2023-01-23T12:04:44;102034.75;;;18.22;45.50
40075;BME280;26529;51.530;11.754;2023-01-23T12:07:19;102025.00;;;18.23;45.47
40075;BME280;26529;51.530;11.754;2023-01-23T12:09:53;102032.16;;;18.21;45.64
40075;BME280;26529;51.530;11.754;2023-01-23T12:12:42;102025.19;;;18.16;45.79
40075;BME280;26529;51.530;11.754;2023-01-23T12:15:26;102027.22;;;18.08;46.10
40075;BME280;26529;51.530;11.754;2023-01-23T12:18:17;102028.25;;;18.02;45.94
40075;BME280;26529;51.530;11.754;2023-01-23T12:23:46;102018.69;;;17.97;46.23
40075;BME280;26529;51.530;11.754;2023-01-23T12:26:16;102017.88;;;17.95;45.99
40075;BME280;26529;51.530;11.754;2023-01-23T12:31:42;102017.91;;;17.93;46.21
40075;BME280;26529;51.530;11.754;2023-01-23T12:37:24;102012.72;;;17.90;46.09
40075;BME280;26529;51.530;11.754;2023-01-23T12:39:59;102007.41;;;17.90;46.18
40075;BME280;26529;51.530;11.754;2023-01-23T12:42:43;102005.66;;;17.89;46.14
40075;BME280;26529;51.530;11.754;2023-01-23T12:45:25;102009.19;;;17.89;46.28
40075;BME280;26529;51.530;11.754;2023-01-23T12:48:13;102006.53;;;17.89;46.03
40075;BME280;26529;51.530;11.754;2023-01-23T12:50:50;102008.38;;;17.87;46.22
40075;BME280;26529;51.530;11.754;2023-01-23T12:53:19;102011.91;;;17.86;46.27
40075;BME280;26529;51.530;11.754;2023-01-23T12:58:22;102006.41;;;17.93;46.17
40075;BME280;26529;51.530;11.754;2023-01-23T13:01:05;102014.50;;;17.89;46.33
40075;BME280;26529;51.530;11.754;2023-01-23T13:06:49;102004.41;;;18.01;45.93
40075;BME280;26529;51.530;11.754;2023-01-23T13:09:21;102013.78;;;18.14;45.61
40075;BME280;26529;51.530;11.754;2023-01-23T13:12:20;102000.00;;;18.30;45.25
40075;BME280;26529;51.530;11.754;2023-01-23T13:14:50;102003.75;;;18.51;45.49
40075;BME280;26529;51.530;11.754;2023-01-23T13:23:26;102000.91;;;18.83;45.41
40075;BME280;26529;51.530;11.754;2023-01-23T13:31:42;102003.56;;;18.83;45.20
40075;BME280;26529;51.530;11.754;2023-01-23T13:36:43;102003.44;;;18.86;45.56
40075;BME280;26529;51.530;11.754;2023-01-23T13:39:21;102000.78;;;18.86;45.16
40075;BME280;26529;51.530;11.754;2023-01-23T13:41:49;102003.44;;;18.86;45.13
40075;BME280;26529;51.530;11.754;2023-01-23T13:44:24;102004.34;;;18.85;45.13
40075;BME280;26529;51.530;11.754;2023-01-23T13:47:14;102000.91;;;18.83;45.38
40075;BME280;26529;51.530;11.754;2023-01-23T13:50:11;102000.00;;;18.82;45.42
40075;BME280;26529;51.530;11.754;2023-01-23T13:52:42;101996.38;;;18.85;45.40
40075;BME280;26529;51.530;11.754;2023-01-23T13:55:32;102000.50;;;18.94;45.28
40075;BME280;26529;51.530;11.754;2023-01-23T13:58:20;101999.34;;;19.03;45.23
40075;BME280;26529;51.530;11.754;2023-01-23T14:00:50;101999.00;;;19.12;44.82